Time;durP1;ratioP1;P1;durP2;ratioP2;P2;SDS_P1;SDS_P2;PMS_P1;PMS_P2;Temp;Humidity;BMP_temperature;BMP_pressure;BME280_temperature;BME280_humidity;BME280_pressure;Samples;Min_cycle;Max_cycle;Signal;HPM_P1;HPM_P2
2023/09/02 00:03:22;;;;;;;4.07;3.77;;;18.50;99.90;;;;;;10464031;28;20224;-80
2023/09/02 00:09:43;;;;;;;;;;;;;;;;;;;;;
2023/09/02 00:14:55;;;;;;;3.80;3.60;;;18.40;99.90;;;;;;10451088;28;20236;-80
2023/09/02 00:19:57;;;;;;;3.90;3.70;;;18.40;99.90;;;;;;10447861;28;20210;-79
2023/09/02 00:25:00;;;;;;;3.80;3.60;;;18.40;99.90;;;;;;10442026;28;20209;-81
2023/09/02 00:30:03;;;;;;;3.80;3.70;;;18.40;99.90;;;;;;10462642;28;20267;-80
2023/09/02 00:35:06;;;;;;;3.63;3.43;;;18.30;99.90;;;;;;10441185;28;20222;-79
2023/09/02 00:40:14;;;;;;;4.07;3.87;;;18.30;99.90;;;;;;10433461;28;20252;-79
2023/09/02 00:45:21;;;;;;;4.00;3.70;;;18.30;99.90;;;;;;10454461;28;20682;-79
2023/09/02 00:50:25;;;;;;;5.77;5.37;;;18.30;99.90;;;;;;10457863;28;20639;-80
2023/09/02 00:55:27;;;;;;;4.23;4.00;;;18.30;99.90;;;;;;10455363;28;20225;-80
2023/09/02 01:00:31;;;;;;;4.17;3.97;;;18.30;99.90;;;;;;10428927;28;20212;-80
2023/09/02 01:05:34;;;;;;;3.63;3.33;;;18.30;99.90;;;;;;10454982;28;20283;-80
2023/09/02 01:10:38;;;;;;;4.03;3.70;;;18.20;99.90;;;;;;10464454;28;20241;-80
2023/09/02 01:15:41;;;;;;;4.10;3.80;;;18.20;99.90;;;;;;10465140;28;20232;-80
2023/09/02 01:21:05;;;;;;;4.00;3.60;;;18.10;99.90;;;;;;10452216;28;20201;-80
2023/09/02 01:26:27;;;;;;;3.80;3.60;;;18.10;99.90;;;;;;10438536;28;20300;-80
2023/09/02 01:31:32;;;;;;;3.63;3.50;;;18.10;99.90;;;;;;10440559;28;20233;-80
2023/09/02 01:36:35;;;;;;;3.77;3.57;;;18.00;99.90;;;;;;10455532;28;20285;-80
2023/09/02 01:41:38;;;;;;;4.10;3.90;;;18.00;99.90;;;;;;10453639;28;20202;-80
2023/09/02 01:46:42;;;;;;;6.40;5.90;;;18.00;99.90;;;;;;10453853;28;20277;-80
2023/09/02 02:05:19;;;;;;;4.03;3.83;;;17.90;99.90;;;;;;10390048;28;20264;-80
2023/09/02 02:16:07;;;;;;;4.30;3.90;;;17.90;99.90;;;;;;10422777;28;20210;-80
2023/09/02 02:21:21;;;;;;;4.03;3.83;;;17.80;99.90;;;;;;10396998;28;20225;-80
2023/09/02 02:26:28;;;;;;;4.80;4.53;;;17.80;99.90;;;;;;10415509;28;20220;-80
2023/09/02 02:31:37;;;;;;;4.03;3.83;;;17.80;99.90;;;;;;10406549;28;20233;-80
2023/09/02 02:36:46;;;;;;;4.37;4.17;;;17.80;99.90;;;;;;10406051;28;20285;-80
2023/09/02 02:42:07;;;;;;;4.50;4.30;;;17.80;99.90;;;;;;10404296;28;20214;-80
2023/09/02 02:47:19;;;;;;;4.47;4.17;;;17.70;99.90;;;;;;10422585;28;20203;-80
2023/09/02 02:52:34;;;;;;;5.40;4.97;;;17.70;99.90;;;;;;10401597;28;20715;-80
2023/09/02 02:57:48;;;;;;;5.30;4.93;;;17.70;99.90;;;;;;10423315;28;20205;-80
2023/09/02 03:03:01;;;;;;;5.00;4.70;;;17.70;99.90;;;;;;10404428;28;20215;-80
2023/09/02 03:08:17;;;;;;;5.20;5.00;;;17.70;99.90;;;;;;10403986;28;20191;-80
2023/09/02 03:13:40;;;;;;;4.90;4.30;;;17.70;99.90;;;;;;10423653;28;20230;-80
2023/09/02 03:19:00;;;;;;;5.30;5.00;;;17.70;99.90;;;;;;10426769;28;20206;-80
2023/09/02 03:24:17;;;;;;;4.80;4.50;;;17.60;99.90;;;;;;10410623;28;20691;-80
2023/09/02 03:29:21;;;;;;;5.70;5.30;;;17.60;99.90;;;;;;10399068;28;20624;-80
2023/09/02 03:34:29;;;;;;;4.60;4.30;;;17.50;99.90;;;;;;10416140;28;20223;-78
2023/09/02 03:39:41;;;;;;;4.50;4.30;;;17.50;99.90;;;;;;10399374;28;20194;-80
2023/09/02 03:44:45;;;;;;;5.27;4.97;;;17.50;99.90;;;;;;10416197;28;20222;-80
2023/09/02 03:49:56;;;;;;;5.30;5.10;;;17.50;99.90;;;;;;10397808;28;20206;-79
2023/09/02 03:55:11;;;;;;;9.70;4.93;;;17.50;99.90;;;;;;10415890;28;20218;-79
2023/09/02 04:00:17;;;;;;;5.03;4.63;;;17.50;99.90;;;;;;10413471;28;20206;-79
2023/09/02 04:05:34;;;;;;;6.20;5.80;;;17.40;99.90;;;;;;10396938;28;20222;-79
2023/09/02 04:10:47;;;;;;;5.40;5.10;;;17.40;99.90;;;;;;10396144;28;20657;-79
2023/09/02 04:16:05;;;;;;;5.67;5.27;;;17.40;99.90;;;;;;10417085;28;20222;-80
2023/09/02 04:21:23;;;;;;;5.40;5.10;;;17.40;99.90;;;;;;10400100;28;20586;-79
2023/09/02 04:26:38;;;;;;;5.37;4.87;;;17.40;99.90;;;;;;10398561;28;20215;-80
2023/09/02 04:31:52;;;;;;;6.17;5.80;;;17.40;99.90;;;;;;10410598;28;20233;-80
2023/09/02 04:37:23;;;;;;;5.57;5.20;;;17.40;99.90;;;;;;10414883;28;20222;-80
2023/09/02 04:42:32;;;;;;;5.20;4.87;;;17.40;99.90;;;;;;10398366;28;20242;-80
2023/09/02 04:47:38;;;;;;;4.10;3.80;;;17.30;99.90;;;;;;10416358;28;20237;-78
2023/09/02 04:52:44;;;;;;;5.00;4.70;;;17.30;99.90;;;;;;10398617;28;20232;-79
2023/09/02 04:57:51;;;;;;;4.47;4.10;;;17.30;99.90;;;;;;10416606;28;20204;-80
2023/09/02 05:02:59;;;;;;;4.80;4.50;;;17.30;99.90;;;;;;10446139;22;20691;-81
2023/09/02 05:08:05;;;;;;;4.90;4.50;;;17.30;99.90;;;;;;10438571;28;20209;-81
2023/09/02 05:13:09;;;;;;;4.53;4.20;;;17.30;99.90;;;;;;10421154;28;20260;-81
2023/09/02 05:18:11;;;;;;;4.03;3.83;;;17.30;99.90;;;;;;10456188;28;20198;-81
2023/09/02 05:23:14;;;;;;;4.57;4.30;;;17.30;99.90;;;;;;10435125;28;20241;-81
2023/09/02 05:28:18;;;;;;;4.63;4.33;;;17.30;99.90;;;;;;10431312;28;20194;-81
2023/09/02 05:33:20;;;;;;;4.67;4.37;;;17.40;99.90;;;;;;10478451;22;20225;-77
2023/09/02 05:38:22;;;;;;;4.87;4.33;;;17.40;99.90;;;;;;10486769;28;20247;-77
2023/09/02 05:43:26;;;;;;;4.20;4.00;;;17.40;99.90;;;;;;10435550;28;20214;-78
2023/09/02 05:48:28;;;;;;;4.40;4.10;;;17.40;99.90;;;;;;10463163;28;20213;-78
2023/09/02 05:53:30;;;;;;;4.73;4.43;;;17.50;99.90;;;;;;10444214;28;20249;-78
2023/09/02 05:58:33;;;;;;;4.70;4.40;;;17.50;99.90;;;;;;10463616;28;20197;-78
2023/09/02 06:03:35;;;;;;;4.83;4.50;;;17.60;99.90;;;;;;10461717;28;20214;-78
2023/09/02 06:08:37;;;;;;;4.37;4.07;;;17.60;99.90;;;;;;10464369;28;20190;-78
2023/09/02 06:13:41;;;;;;;5.07;4.53;;;17.70;99.90;;;;;;10462835;28;20241;-78
2023/09/02 06:18:43;;;;;;;5.73;4.83;;;17.70;99.90;;;;;;10444814;28;20717;-78
2023/09/02 06:23:46;;;;;;;4.40;4.10;;;17.80;99.90;;;;;;10460347;28;20221;-78
2023/09/02 06:28:49;;;;;;;4.50;4.10;;;17.80;99.90;;;;;;10463158;28;20198;-78
2023/09/02 06:33:51;;;;;;;6.00;5.00;;;17.90;99.90;;;;;;10460969;28;20218;-78
2023/09/02 06:38:53;;;;;;;5.40;5.00;;;17.90;99.90;;;;;;10461904;28;20224;-78
2023/09/02 06:43:57;;;;;;;5.30;4.47;;;18.00;99.90;;;;;;10443359;28;20224;-78
2023/09/02 06:48:59;;;;;;;5.00;4.57;;;18.10;99.90;;;;;;10443889;28;20210;-78
2023/09/02 06:54:02;;;;;;;4.93;4.60;;;18.20;99.90;;;;;;10460517;28;20801;-78
2023/09/02 06:59:05;;;;;;;3.80;3.60;;;18.20;99.90;;;;;;10462207;28;20198;-78
2023/09/02 07:04:07;;;;;;;4.83;4.40;;;18.30;99.90;;;;;;10460145;28;20210;-78
2023/09/02 07:09:10;;;;;;;4.63;4.43;;;18.30;99.90;;;;;;10460971;28;20248;-78
2023/09/02 07:14:13;;;;;;;4.57;4.33;;;18.40;99.90;;;;;;10460359;28;20756;-78
2023/09/02 07:19:15;;;;;;;4.87;4.57;;;18.50;99.90;;;;;;10460883;28;20198;-78
2023/09/02 07:24:17;;;;;;;4.13;3.93;;;18.50;99.90;;;;;;10457522;28;20232;-79
2023/09/02 07:29:21;;;;;;;4.33;4.03;;;18.60;99.90;;;;;;10457052;28;20205;-79
2023/09/02 07:34:23;;;;;;;5.57;5.10;;;18.70;99.90;;;;;;10448828;28;20218;-78
2023/09/02 07:39:25;;;;;;;5.10;4.73;;;18.80;99.90;;;;;;10439640;28;20200;-78
2023/09/02 07:44:29;;;;;;;5.10;4.67;;;18.90;99.90;;;;;;10453060;28;20224;-78
2023/09/02 07:49:31;;;;;;;4.40;4.10;;;19.00;99.90;;;;;;10457728;28;20224;-78
2023/09/02 07:54:33;;;;;;;4.87;4.57;;;19.20;99.90;;;;;;10452609;28;20242;-78
2023/09/02 07:59:37;;;;;;;4.53;4.13;;;19.40;99.90;;;;;;10456366;28;20194;-78
2023/09/02 08:04:39;;;;;;;5.00;4.60;;;19.60;99.90;;;;;;10451129;28;20214;-78
2023/09/02 08:09:41;;;;;;;4.80;4.40;;;19.80;99.90;;;;;;10440927;28;20202;-78
2023/09/02 08:14:44;;;;;;;4.30;3.80;;;20.00;99.90;;;;;;10446554;28;20218;-79
2023/09/02 08:19:46;;;;;;;4.10;3.80;;;20.20;99.90;;;;;;10423766;28;20194;-79
2023/09/02 08:24:48;;;;;;;3.53;3.23;;;20.40;99.90;;;;;;10440590;28;20265;-79
2023/09/02 08:29:53;;;;;;;4.97;4.10;;;20.70;99.90;;;;;;10441961;28;20244;-79
2023/09/02 08:34:55;;;;;;;3.60;3.40;;;20.90;99.90;;;;;;10441812;28;20638;-79
2023/09/02 08:39:57;;;;;;;7.60;3.70;;;21.10;99.90;;;;;;10451463;28;20201;-79
2023/09/02 08:45:03;;;;;;;3.53;3.23;;;21.10;99.90;;;;;;10447945;28;20210;-79
2023/09/02 08:50:07;;;;;;;3.60;3.10;;;21.20;99.90;;;;;;10436976;28;20202;-78
2023/09/02 08:55:10;;;;;;;4.00;3.70;;;21.20;99.90;;;;;;10456748;28;20248;-79
2023/09/02 09:00:13;;;;;;;4.30;4.00;;;21.20;99.90;;;;;;10457916;28;20213;-79
2023/09/02 09:05:16;;;;;;;4.30;3.90;;;21.20;99.90;;;;;;10441705;28;20760;-79
2023/09/02 09:10:21;;;;;;;4.10;3.80;;;21.20;99.90;;;;;;10432777;28;20312;-78
2023/09/02 09:15:25;;;;;;;3.97;3.67;;;21.20;99.90;;;;;;10444597;28;20225;-78
2023/09/02 09:20:27;;;;;;;4.50;3.53;;;21.30;99.90;;;;;;10471666;28;20201;-78
2023/09/02 09:25:29;;;;;;;4.50;4.03;;;21.20;99.90;;;;;;10467788;28;20224;-79
2023/09/02 09:30:33;;;;;;;4.60;4.20;;;21.30;99.90;;;;;;10486946;28;20205;-78
2023/09/02 09:35:35;;;;;;;3.10;2.90;;;21.30;99.90;;;;;;10485342;28;20320;-79
2023/09/02 09:40:38;;;;;;;3.37;3.07;;;21.40;99.90;;;;;;10489672;28;20203;-79
2023/09/02 09:45:50;;;;;;;2.90;2.80;;;21.50;99.90;;;;;;10485105;28;20229;-79
2023/09/02 09:50:52;;;;;;;3.20;3.00;;;21.60;99.90;;;;;;10456408;28;20264;-78
2023/09/02 09:55:54;;;;;;;3.40;3.10;;;21.90;99.90;;;;;;10457485;28;20230;-78
2023/09/02 10:00:58;;;;;;;3.23;3.03;;;22.10;99.90;;;;;;10470270;28;20217;-79
2023/09/02 10:06:01;;;;;;;2.87;2.67;;;22.50;99.90;;;;;;10455291;28;20221;-79
2023/09/02 10:11:20;;;;;;;3.00;2.80;;;22.80;99.90;;;;;;10466545;28;20226;-79
2023/09/02 10:16:25;;;;;;;3.50;3.17;;;22.90;99.90;;;;;;10465292;28;20305;-79
2023/09/02 10:21:29;;;;;;;3.80;2.93;;;22.90;99.90;;;;;;10452646;28;20247;-79
2023/09/02 10:26:36;;;;;;;2.93;2.77;;;22.90;99.90;;;;;;10471146;28;20249;-80
2023/09/02 10:31:42;;;;;;;3.20;3.00;;;22.80;99.90;;;;;;10453694;28;20194;-78
2023/09/02 10:36:52;;;;;;;1.90;1.80;;;22.60;99.90;;;;;;10463445;28;20233;-78
2023/09/02 10:41:56;;;;;;;2.70;2.50;;;22.60;99.90;;;;;;10458429;28;20683;-78
2023/09/02 10:47:00;;;;;;;3.40;3.10;;;22.50;99.90;;;;;;10462933;28;20217;-79
2023/09/02 10:52:03;;;;;;;2.37;2.27;;;22.50;99.90;;;;;;10484442;28;20228;-79
2023/09/02 10:57:15;;;;;;;3.00;2.80;;;22.50;99.90;;;;;;10469383;28;20244;-79
2023/09/02 11:02:39;;;;;;;3.10;2.90;;;22.40;99.90;;;;;;10475412;28;20587;-79
2023/09/02 11:07:42;;;;;;;3.10;2.90;;;22.50;99.90;;;;;;10461132;28;20675;-79
2023/09/02 11:13:04;;;;;;;2.77;2.57;;;22.60;99.90;;;;;;10485221;28;20222;-79
2023/09/02 11:18:32;;;;;;;2.73;2.60;;;22.60;99.90;;;;;;10465225;28;20730;-79
2023/09/02 11:23:35;;;;;;;3.10;2.90;;;22.60;99.90;;;;;;10484042;28;20305;-79
2023/09/02 11:28:38;;;;;;;3.37;2.70;;;22.70;99.90;;;;;;10449450;28;20205;-79
2023/09/02 11:33:48;;;;;;;2.70;2.60;;;22.80;99.90;;;;;;10471907;28;20773;-78
2023/09/02 11:38:50;;;;;;;3.07;2.77;;;22.80;99.90;;;;;;10457624;28;20208;-79
2023/09/02 11:43:52;;;;;;;2.30;2.20;;;22.70;99.90;;;;;;10483450;28;20225;-79
2023/09/02 11:48:56;;;;;;;2.00;1.90;;;22.80;99.90;;;;;;10480896;28;20205;-78
2023/09/02 11:53:58;;;;;;;2.80;2.60;;;23.00;99.90;;;;;;10475750;28;20226;-79
2023/09/02 11:59:01;;;;;;;2.70;2.50;;;23.10;99.90;;;;;;10479526;28;20193;-79
2023/09/02 12:04:04;;;;;;;2.80;2.60;;;23.10;99.90;;;;;;10481225;28;20240;-79
2023/09/02 12:09:07;;;;;;;3.80;3.33;;;23.10;99.90;;;;;;10467291;28;20201;-79
2023/09/02 12:14:09;;;;;;;4.70;2.40;;;23.20;99.90;;;;;;10424382;28;20226;-79
2023/09/02 12:19:13;;;;;;;3.07;2.77;;;23.30;99.90;;;;;;10452014;28;20232;-80
2023/09/02 12:24:15;;;;;;;3.03;2.83;;;23.40;99.90;;;;;;10462781;28;20252;-79
2023/09/02 12:29:17;;;;;;;2.73;2.53;;;23.40;99.90;;;;;;10455184;28;20198;-80
2023/09/02 12:34:21;;;;;;;6.23;2.60;;;23.60;99.90;;;;;;10435240;28;20214;-79
2023/09/02 12:39:23;;;;;;;2.87;2.57;;;23.50;99.90;;;;;;10431211;28;20648;-79
2023/09/02 12:44:25;;;;;;;2.90;2.70;;;23.60;99.90;;;;;;10453617;28;20240;-80
2023/09/02 12:49:29;;;;;;;2.70;2.50;;;23.70;99.90;;;;;;10457621;28;20198;-79
2023/09/02 12:54:31;;;;;;;3.43;3.23;;;23.60;99.90;;;;;;10435721;28;20226;-79
2023/09/02 12:59:33;;;;;;;3.10;2.87;;;23.40;99.90;;;;;;10454747;28;20255;-79
2023/09/02 13:04:38;;;;;;;2.97;2.77;;;23.10;99.90;;;;;;10455276;28;20229;-79
2023/09/02 13:09:40;;;;;;;2.77;2.60;;;23.00;99.90;;;;;;10438993;28;20204;-80
2023/09/02 13:14:43;;;;;;;2.67;2.47;;;22.90;99.90;;;;;;10439580;28;20279;-79
2023/09/02 13:19:47;;;;;;;3.10;2.83;;;23.00;99.90;;;;;;10456825;28;20201;-79
2023/09/02 13:24:51;;;;;;;2.77;2.57;;;23.00;99.90;;;;;;10458710;28;20213;-79
2023/09/02 13:29:54;;;;;;;3.00;2.70;;;23.10;99.90;;;;;;10459217;28;20198;-79
2023/09/02 13:35:08;;;;;;;2.70;2.60;;;23.20;99.90;;;;;;10457548;28;20741;-80
2023/09/02 13:40:43;;;;;;;2.40;2.30;;;23.30;99.90;;;;;;10441735;28;20198;-79
2023/09/02 13:45:46;;;;;;;2.87;2.67;;;23.50;99.90;;;;;;10458967;28;20276;-79
2023/09/02 13:50:50;;;;;;;3.10;2.90;;;23.50;99.90;;;;;;10459933;28;20213;-80
2023/09/02 13:55:52;;;;;;;6.10;2.70;;;23.50;99.90;;;;;;10465312;28;20252;-80
2023/09/02 14:00:54;;;;;;;2.60;2.40;;;23.50;99.90;;;;;;10467372;28;20198;-80
2023/09/02 14:06:03;;;;;;;2.57;2.40;;;23.40;99.90;;;;;;10462444;28;20214;-80
2023/09/02 14:11:06;;;;;;;3.50;2.43;;;23.50;99.90;;;;;;10457369;28;20201;-79
2023/09/02 14:16:08;;;;;;;2.40;2.20;;;23.70;99.90;;;;;;10456390;28;20234;-79
2023/09/02 14:21:11;;;;;;;2.83;2.60;;;23.80;99.90;;;;;;10458975;28;20255;-79
2023/09/02 14:26:14;;;;;;;2.20;2.10;;;23.90;99.90;;;;;;10441117;28;20221;-79
2023/09/02 14:31:16;;;;;;;2.70;2.50;;;24.00;99.90;;;;;;10461287;28;20441;-79
2023/09/02 14:36:19;;;;;;;2.67;2.47;;;24.00;99.90;;;;;;10460019;28;20229;-79
2023/09/02 14:41:21;;;;;;;2.60;2.40;;;24.10;99.90;;;;;;10441674;28;20197;-79
2023/09/02 14:46:23;;;;;;;3.13;2.50;;;24.10;99.90;;;;;;10458417;28;20305;-79
2023/09/02 14:51:27;;;;;;;4.70;2.83;;;24.10;99.90;;;;;;10461106;28;20205;-79
2023/09/02 14:56:29;;;;;;;3.20;2.90;;;24.10;99.90;;;;;;10460110;28;20222;-79
2023/09/02 15:01:32;;;;;;;2.50;2.40;;;24.10;99.90;;;;;;10460073;28;20202;-79
2023/09/02 15:06:36;;;;;;;3.17;2.97;;;24.10;99.90;;;;;;10457527;28;20279;-79
2023/09/02 15:11:40;;;;;;;3.00;2.60;;;24.10;99.90;;;;;;10454083;28;20675;-79
2023/09/02 15:16:42;;;;;;;2.50;2.40;;;24.00;99.90;;;;;;10460433;28;20225;-79
2023/09/02 15:21:45;;;;;;;2.83;2.23;;;23.90;99.90;;;;;;10453890;28;20201;-79
2023/09/02 15:26:48;;;;;;;2.20;2.10;;;23.80;99.90;;;;;;10460413;28;20699;-79
2023/09/02 15:31:51;;;;;;;2.50;2.40;;;23.90;99.90;;;;;;10454752;28;20573;-78
2023/09/02 15:36:57;;;;;;;2.47;2.37;;;24.00;99.90;;;;;;10456591;28;20225;-79
2023/09/02 15:42:01;;;;;;;2.20;2.10;;;24.00;99.90;;;;;;10460741;28;20198;-78
2023/09/02 15:47:10;;;;;;;2.87;2.63;;;23.90;99.90;;;;;;10460349;28;20232;-79
2023/09/02 15:52:13;;;;;;;2.27;2.17;;;24.00;99.90;;;;;;10454156;28;20697;-79
2023/09/02 15:57:16;;;;;;;2.30;2.10;;;24.00;99.90;;;;;;10457646;28;20226;-79
2023/09/02 16:02:18;;;;;;;3.07;2.73;;;23.90;99.90;;;;;;10459777;28;20613;-78
2023/09/02 16:07:22;;;;;;;2.40;2.30;;;23.90;99.90;;;;;;10438727;28;20254;-79
2023/09/02 16:12:24;;;;;;;2.73;2.53;;;23.90;99.90;;;;;;10452982;28;20828;-79
2023/09/02 16:17:28;;;;;;;3.67;2.40;;;23.80;99.90;;;;;;10454284;28;20249;-79
2023/09/02 16:22:31;;;;;;;2.93;2.73;;;23.80;99.90;;;;;;10454233;28;20713;-80
2023/09/02 16:27:34;;;;;;;2.80;2.60;;;23.70;99.90;;;;;;10451396;28;20205;-79
2023/09/02 16:32:36;;;;;;;3.00;2.77;;;23.60;99.90;;;;;;10457572;28;20240;-79
2023/09/02 16:37:41;;;;;;;3.20;3.00;;;23.60;99.90;;;;;;10454701;28;20259;-79
2023/09/02 16:42:44;;;;;;;2.33;2.13;;;23.50;99.90;;;;;;10460549;28;20719;-79
2023/09/02 16:47:48;;;;;;;2.90;2.00;;;23.50;99.90;;;;;;10470160;28;20209;-79
2023/09/02 16:52:53;;;;;;;2.37;2.23;;;23.50;99.90;;;;;;10455527;28;20317;-79
2023/09/02 16:57:56;;;;;;;2.53;2.43;;;23.60;99.90;;;;;;10471346;28;20284;-79
2023/09/02 17:03:01;;;;;;;2.60;2.40;;;23.60;99.90;;;;;;10475291;28;20225;-79
2023/09/02 17:08:07;;;;;;;2.60;2.40;;;23.50;99.90;;;;;;10478531;28;20201;-79
2023/09/02 17:13:10;;;;;;;2.40;2.30;;;23.40;99.90;;;;;;10470410;28;20217;-79
2023/09/02 17:18:12;;;;;;;2.90;2.70;;;23.30;99.90;;;;;;10425018;28;20251;-79
2023/09/02 17:23:19;;;;;;;3.23;3.03;;;23.20;99.90;;;;;;10433968;28;20221;-79
2023/09/02 17:28:25;;;;;;;3.70;3.40;;;23.00;99.90;;;;;;10460107;28;20274;-79
2023/09/02 17:33:28;;;;;;;5.03;4.60;;;22.90;99.90;;;;;;10470266;23;20234;-79
2023/09/02 17:38:31;;;;;;;7.43;6.00;;;22.90;99.90;;;;;;10466927;28;20213;-79
2023/09/02 17:43:33;;;;;;;5.83;5.13;;;22.90;99.90;;;;;;10452368;28;20278;-79
2023/09/02 17:48:35;;;;;;;4.80;4.37;;;22.90;99.90;;;;;;10485989;28;20197;-79
2023/09/02 17:53:39;;;;;;;5.47;3.90;;;22.80;99.90;;;;;;10492250;28;20229;-79
2023/09/02 17:58:41;;;;;;;5.20;4.80;;;22.70;99.90;;;;;;10458953;28;20221;-77
2023/09/02 18:03:43;;;;;;;4.50;4.10;;;22.60;99.90;;;;;;10465819;28;20340;-79
2023/09/02 18:08:48;;;;;;;6.30;5.70;;;22.50;99.90;;;;;;10455886;28;20841;-79
2023/09/02 18:13:50;;;;;;;13.63;5.57;;;22.40;99.90;;;;;;10463000;28;20317;-78
2023/09/02 18:18:52;;;;;;;6.07;5.57;;;22.30;99.90;;;;;;10468605;28;20252;-80
2023/09/02 18:23:56;;;;;;;7.03;5.60;;;22.20;99.90;;;;;;10474875;28;20225;-79
2023/09/02 18:28:58;;;;;;;6.50;5.90;;;22.10;99.90;;;;;;10462256;28;20228;-77
2023/09/02 18:34:00;;;;;;;5.07;4.67;;;22.00;99.90;;;;;;10453614;28;20229;-79
2023/09/02 18:39:04;;;;;;;5.97;5.23;;;21.90;99.90;;;;;;10442950;28;20209;-80
2023/09/02 18:44:06;;;;;;;11.20;7.70;;;21.80;99.90;;;;;;10460079;28;20218;-78
2023/09/02 18:49:09;;;;;;;12.50;10.07;;;21.80;99.90;;;;;;10459975;28;20213;-78
2023/09/02 18:54:12;;;;;;;12.67;11.37;;;21.70;99.90;;;;;;10459808;28;20225;-79
2023/09/02 18:59:14;;;;;;;6.90;5.40;;;21.70;99.90;;;;;;10459840;28;20198;-79
2023/09/02 19:04:16;;;;;;;7.50;5.40;;;21.70;99.90;;;;;;10461660;28;20229;-79
2023/09/02 19:09:20;;;;;;;4.20;3.90;;;21.60;99.90;;;;;;10459650;28;20938;-79
2023/09/02 19:14:22;;;;;;;5.17;4.77;;;21.50;99.90;;;;;;10459236;28;20237;-78
2023/09/02 19:19:24;;;;;;;7.50;5.10;;;21.50;99.90;;;;;;10459781;28;20205;-78
2023/09/02 19:24:28;;;;;;;6.37;5.77;;;21.50;99.90;;;;;;10441985;28;20593;-78
2023/09/02 19:29:30;;;;;;;4.97;3.90;;;21.40;99.90;;;;;;10442054;28;20259;-79
2023/09/02 19:34:32;;;;;;;4.60;4.30;;;21.40;99.90;;;;;;10458702;28;20225;-79
2023/09/02 19:39:36;;;;;;;4.80;4.50;;;21.40;99.90;;;;;;10459304;28;20202;-79
2023/09/02 19:44:38;;;;;;;6.80;5.37;;;21.30;99.90;;;;;;10458474;28;20225;-79
2023/09/02 19:49:40;;;;;;;5.47;4.67;;;21.30;99.90;;;;;;10455370;28;20206;-78
2023/09/02 19:54:44;;;;;;;9.50;8.40;;;21.20;99.90;;;;;;10458151;28;20244;-79
2023/09/02 19:59:46;;;;;;;7.10;6.57;;;21.20;99.90;;;;;;10458331;28;20198;-78
2023/09/02 20:04:53;;;;;;;7.30;6.70;;;21.20;99.90;;;;;;10458555;28;20292;-79
2023/09/02 20:09:57;;;;;;;7.50;6.80;;;21.10;99.90;;;;;;10422416;28;20271;-79
2023/09/02 20:14:59;;;;;;;5.60;5.10;;;21.10;99.90;;;;;;10438582;28;20690;-78
2023/09/02 20:20:01;;;;;;;5.90;5.40;;;21.00;99.90;;;;;;10438477;28;20206;-79
2023/09/02 20:25:05;;;;;;;5.93;5.27;;;21.00;99.90;;;;;;10460328;28;20221;-77
2023/09/02 20:30:08;;;;;;;5.47;4.97;;;20.90;99.90;;;;;;10457425;28;20198;-79
2023/09/02 20:35:11;;;;;;;13.43;10.57;;;20.90;99.90;;;;;;10456210;28;20225;-79
2023/09/02 20:40:15;;;;;;;8.40;7.23;;;20.90;99.90;;;;;;10423132;28;20244;-79
2023/09/02 20:45:18;;;;;;;7.23;5.27;;;20.90;99.90;;;;;;10457103;28;20268;-79
2023/09/02 20:50:22;;;;;;;5.20;4.67;;;20.80;99.90;;;;;;10454407;28;20285;-77
2023/09/02 20:55:29;;;;;;;5.90;5.40;;;20.80;99.90;;;;;;10460370;28;20217;-78
2023/09/02 21:00:31;;;;;;;6.70;6.10;;;20.70;99.90;;;;;;10465206;28;20248;-77
2023/09/02 21:05:33;;;;;;;6.20;5.60;;;20.70;99.90;;;;;;10455982;28;20214;-77
2023/09/02 21:10:37;;;;;;;6.00;5.27;;;20.70;99.90;;;;;;10455616;28;20244;-78
2023/09/02 21:15:39;;;;;;;5.90;5.07;;;20.60;99.90;;;;;;10454915;28;20240;-78
2023/09/02 21:20:43;;;;;;;5.83;4.60;;;20.60;99.90;;;;;;10455195;28;20205;-78
2023/09/02 21:25:46;;;;;;;4.83;4.50;;;20.60;99.90;;;;;;10456676;28;20232;-78
2023/09/02 21:30:48;;;;;;;4.90;4.50;;;20.50;99.90;;;;;;10436801;28;20251;-78
2023/09/02 21:35:50;;;;;;;7.80;4.70;;;20.50;99.90;;;;;;10452442;28;20222;-77
2023/09/02 21:41:02;;;;;;;9.90;4.97;;;20.50;99.90;;;;;;10453188;28;20662;-77
2023/09/02 21:46:06;;;;;;;4.80;4.40;;;20.40;99.90;;;;;;10425514;28;20253;-79
2023/09/02 21:51:11;;;;;;;3.93;3.63;;;20.40;99.90;;;;;;10434462;28;20263;-79
2023/09/02 21:56:14;;;;;;;5.47;4.60;;;20.40;99.90;;;;;;10437585;28;20242;-78
2023/09/02 22:01:18;;;;;;;5.40;4.90;;;20.40;99.90;;;;;;10454772;28;20204;-79
2023/09/02 22:06:20;;;;;;;7.03;5.50;;;20.30;99.90;;;;;;10437612;28;20244;-80
2023/09/02 22:11:23;;;;;;;5.27;4.80;;;20.30;99.90;;;;;;10454198;28;20616;-79
2023/09/02 22:16:25;;;;;;;5.00;4.60;;;20.30;99.90;;;;;;10460649;28;20221;-79
2023/09/02 22:21:27;;;;;;;4.73;4.17;;;20.30;99.90;;;;;;10456697;28;20213;-78
2023/09/02 22:26:31;;;;;;;5.10;4.80;;;20.20;99.90;;;;;;10455352;28;20308;-79
2023/09/02 22:31:33;;;;;;;5.27;4.87;;;20.20;99.90;;;;;;10439433;28;20290;-78
2023/09/02 22:36:35;;;;;;;5.20;4.80;;;20.20;99.90;;;;;;10459505;28;20279;-79
2023/09/02 22:41:38;;;;;;;5.23;4.73;;;20.10;99.90;;;;;;10443316;28;20190;-79
2023/09/02 22:46:40;;;;;;;5.43;5.00;;;20.10;99.90;;;;;;10462199;28;20241;-80
2023/09/02 22:51:42;;;;;;;6.50;6.00;;;20.10;99.90;;;;;;10458693;28;20206;-80
2023/09/02 22:56:47;;;;;;;5.47;5.07;;;20.00;99.90;;;;;;10460773;28;20568;-80
2023/09/02 23:01:49;;;;;;;6.57;5.73;;;20.00;99.90;;;;;;10460476;28;20592;-79
2023/09/02 23:06:51;;;;;;;5.77;5.17;;;20.00;99.90;;;;;;10461320;28;20218;-79
2023/09/02 23:11:54;;;;;;;5.30;5.00;;;19.90;99.90;;;;;;10460516;28;20620;-80
2023/09/02 23:16:56;;;;;;;4.80;4.50;;;19.90;99.90;;;;;;10461595;28;20221;-78
2023/09/02 23:21:58;;;;;;;5.60;5.10;;;19.90;99.90;;;;;;10459755;28;20186;-79
2023/09/02 23:27:03;;;;;;;4.77;4.47;;;19.80;99.90;;;;;;10459927;28;20765;-79
2023/09/02 23:32:05;;;;;;;5.17;4.67;;;19.80;99.90;;;;;;10462470;28;20850;-79
2023/09/02 23:37:08;;;;;;;5.10;4.60;;;19.70;99.90;;;;;;10479529;22;20222;-78
2023/09/02 23:42:15;;;;;;;5.23;4.73;;;19.70;99.90;;;;;;10458398;28;20190;-78
2023/09/02 23:47:19;;;;;;;4.83;4.50;;;19.70;99.90;;;;;;10458320;28;20238;-78
2023/09/02 23:52:21;;;;;;;4.47;4.07;;;19.70;99.90;;;;;;10456433;28;20194;-78
2023/09/02 23:57:25;;;;;;;6.67;5.40;;;19.70;99.90;;;;;;10457820;28;20225;-78
